Data for 08/26/2009

Time Sea-Level Adjusted Pressure Absolute Pressure Temperature Relative Humidity Dew Point   
(mb) (inHg) (mb) (inHg) (C) (F) (%) (C) (F)
00:05 1021 30.15 850 25.1 16.9 62.4 43 4.5 40.1
00:10 1021 30.15 850 25.1 16.9 62.4 44 4.6 40.3
00:15 1021 30.15 850 25.1 16.7 62 44 4.5 40
00:20 1021 30.15 850 25.1 16.6 61.9 44 4.4 39.9
00:25 1021 30.15 850 25.1 16.7 62 45 4.7 40.4
00:30 1021 30.15 850 25.1 16.8 62.2 43 4.4 39.9
00:35 1021 30.15 850 25.1 16.9 62.4 45 5.1 41.1
00:40 1021 30.15 850 25.1 16.7 62 44 4.4 40
00:45 1021 30.15 850 25.1 16.7 62 44 4.5 40.1
00:50 1021 30.15 850 25.1 16.5 61.7 46 4.9 40.8
00:55 1021 30.15 850 25.1 16.4 61.4 45 4.5 40.1
01:00 1021 30.15 850 25.1 16.4 61.4 44 4.3 39.7
01:05 1021 30.15 851 25.13 16.4 61.5 46 4.8 40.6
01:10 1021 30.15 851 25.13 16.1 60.9 49 5.3 41.6
01:15 1021 30.15 851 25.13 15.8 60.4 47 4.6 40.2
01:20 1021 30.15 851 25.13 16.5 61.7 43 4.1 39.4
01:25 1021 30.15 851 25.13 16.7 62 44 4.5 40.1
01:30 1021 30.15 851 25.13 16.2 61.1 45 4.4 39.9
01:35 1021 30.15 851 25.13 16.2 61.2 45 4.4 40
01:40 1021 30.15 851 25.13 16.1 61 45 4.3 39.7
01:45 1021 30.15 851 25.13 16.1 60.9 49 5.6 42
01:50 1021 30.15 851 25.13 16.3 61.3 49 5.6 42
01:55 1021 30.15 851 25.13 15.8 60.5 48 5 41.1
02:00 1021 30.15 851 25.13 15.5 59.9 49 4.9 40.8
02:05 1021 30.15 851 25.13 15.3 59.6 49 4.8 40.6
02:10 1021 30.15 851 25.13 15.2 59.3 50 5 40.9
02:15 1021 30.15 851 25.13 15.1 59.1 50 4.8 40.6
02:20 1021 30.15 851 25.13 15.3 59.5 49 4.7 40.4
02:25 1021 30.15 851 25.13 15.3 59.6 49 4.7 40.5
02:30 1021 30.15 851 25.13 15.1 59.2 50 4.8 40.6
02:35 1021 30.15 851 25.13 15.2 59.4 48 4.3 39.8
02:40 1021 30.15 851 25.13 15.6 60.1 47 4.5 40
02:45 1021 30.15 851 25.13 15.7 60.2 47 4.5 40.2
02:50 1021 30.15 851 25.13 15.4 59.8 48 4.6 40.3
02:55 1021 30.15 851 25.13 15.2 59.4 50 4.9 40.8
03:00 1021 30.15 851 25.13 14.8 58.6 51 4.9 40.9
03:05 1021 30.15 851 25.13 14.5 58.2 55 5.6 42.1
03:10 1021 30.15 851 25.13 14.6 58.4 50 4.4 40
03:15 1021 30.15 851 25.13 14.7 58.5 51 4.7 40.5
03:20 1021 30.15 851 25.13 14.6 58.2 51 4.7 40.4
03:25 1021 30.15 851 25.13 14.4 58 53 5 41
03:30 1022 30.18 851 25.13 14.1 57.4 54 5 41
03:35 1022 30.18 851 25.13 14.1 57.3 53 4.6 40.4
03:40 1022 30.18 851 25.13 14.7 58.5 48 4 39.3
03:45 1022 30.18 851 25.13 15.5 59.9 47 4.3 39.7
03:50 1022 30.18 851 25.13 15.4 59.7 48 4.5 40.1
03:55 1022 30.18 851 25.13 15.3 59.5 49 4.6 40.2
04:00 1022 30.18 851 25.13 15 59.1 50 4.7 40.4
04:05 1022 30.18 851 25.13 14.9 58.7 50 4.6 40.3
04:10 1022 30.18 851 25.13 14.8 58.6 50 4.5 40.1
04:15 1022 30.18 851 25.13 14.9 58.8 49 4.5 40.1
04:20 1022 30.18 851 25.13 14.7 58.5 52 5 40.9
04:25 1022 30.18 851 25.13 14.1 57.3 52 4.4 39.9
04:30 1022 30.18 851 25.13 14.5 58 50 4.4 39.9
04:35 1022 30.18 851 25.13 14.9 58.9 48 4.2 39.6
04:40 1022 30.18 851 25.13 14.9 58.8 50 4.7 40.4
04:45 1022 30.18 851 25.13 14.5 58 52 4.9 40.8
04:50 1022 30.18 851 25.13 14 57.2 54 4.8 40.7
04:55 1022 30.18 851 25.13 13.9 56.9 54 4.8 40.7
05:00 1022 30.18 851 25.13 13.7 56.7 54 4.7 40.5
05:05 1022 30.18 851 25.13 13.8 56.9 53 4.5 40.2
05:10 1022 30.18 851 25.13 14.1 57.5 52 4.4 40
05:15 1022 30.18 852 25.16 14.3 57.8 52 4.8 40.6
05:20 1022 30.18 852 25.16 14.2 57.5 52 4.5 40.2
05:25 1022 30.18 852 25.16 14.2 57.5 54 5 41
05:30 1022 30.18 852 25.16 13.6 56.5 55 4.7 40.5
05:35 1022 30.18 852 25.16 13.5 56.2 55 4.7 40.4
05:40 1022 30.18 852 25.16 14.1 57.3 50 4 39.2
05:45 1023 30.21 852 25.16 14.9 58.9 47 3.9 39
05:50 1023 30.21 852 25.16 15.2 59.3 48 4.4 39.9
05:55 1023 30.21 852 25.16 15 58.9 48 4.3 39.7
06:00 1023 30.21 852 25.16 15 59 48 4.3 39.7
06:05 1023 30.21 852 25.16 14.8 58.7 50 4.5 40.2
06:10 1023 30.21 852 25.16 14.5 58.2 50 4.4 40
06:15 1023 30.21 852 25.16 14.4 57.9 50 4.3 39.7
06:20 1023 30.21 852 25.16 13.8 56.8 54 4.8 40.6
06:25 1023 30.21 852 25.16 13.4 56.1 56 4.8 40.6
06:30 1023 30.21 852 25.16 13.5 56.2 53 4.1 39.4
06:35 1023 30.21 852 25.16 13.8 56.9 53 4.6 40.2
06:40 1023 30.21 852 25.16 13.5 56.3 55 4.7 40.5
06:45 1023 30.21 852 25.16 13.7 56.6 52 4 39.3
06:50 1023 30.21 852 25.16 14.1 57.4 51 4.3 39.8
06:55 1023 30.21 852 25.16 14 57.1 53 4.7 40.5
07:00 1023 30.21 852 25.16 13.7 56.6 54 4.7 40.5
07:05 1023 30.21 852 25.16 13.8 56.8 53 4.5 40.1
07:10 1023 30.21 852 25.16 14.1 57.4 52 4.6 40.3
07:15 1023 30.21 852 25.16 14.1 57.4 50 4 39.2
07:20 1023 30.21 852 25.16 14.6 58.2 50 4.4 40
07:25 1023 30.21 852 25.16 14.6 58.4 51 4.7 40.5
07:30 1023 30.21 852 25.16 14.5 58.1 51 4.7 40.4
07:35 1023 30.21 852 25.16 14.6 58.4 51 4.8 40.6
07:40 1023 30.21 852 25.16 14.9 58.8 50 4.7 40.4
07:45 1023 30.21 852 25.16 15.2 59.3 50 4.9 40.9
07:50 1023 30.21 852 25.16 15.4 59.8 49 4.9 40.9
07:55 1023 30.21 852 25.16 15.4 59.8 51 5.4 41.8
08:00 1023 30.21 852 25.16 15.6 60.1 51 5.6 42.1
08:05 1023 30.21 852 25.16 16.1 60.9 47 4.9 40.9
08:10 1023 30.21 852 25.16 16.6 61.8 45 4.8 40.6
08:15 1023 30.21 853 25.19 17 62.5 46 5.4 41.8
08:20 1023 30.21 853 25.19 17.3 63.2 46 5.7 42.3
08:25 1023 30.21 853 25.19 17.7 63.8 45 5.8 42.5
08:30 1024 30.24 853 25.19 17.8 64.1 45 5.8 42.4
08:35 1024 30.24 853 25.19 18.1 64.5 42 5.1 41.2
08:40 1024 30.24 853 25.19 18 64.4 42 5 41
08:45 1024 30.24 853 25.19 18.1 64.6 44 5.7 42.3
08:50 1024 30.24 853 25.19 18.6 65.5 42 5.6 42
08:55 1024 30.24 853 25.19 19.4 66.9 40 5.5 41.9
09:00 1024 30.24 853 25.19 20.3 68.6 39 5.9 42.7
09:05 1024 30.24 853 25.19 20.5 68.8 41 7 44.5
09:10 1024 30.24 853 25.19 19.6 67.3 42 6.6 44
09:15 1024 30.24 853 25.19 19.7 67.5 42 6.6 43.8
09:20 1024 30.24 853 25.19 19.5 67.1 41 6.2 43.2
09:25 1024 30.24 853 25.19 19.4 67 41 6.1 43
09:30 1024 30.24 853 25.19 19.6 67.2 40 5.9 42.6
09:35 1024 30.24 853 25.19 19.9 67.8 38 5.4 41.8
09:40 1024 30.24 853 25.19 20.1 68.1 37 5 41.1
09:45 1024 30.24 853 25.19 20.6 69.1 37 5.4 41.7
09:50 1024 30.24 853 25.19 20.9 69.5 36 5.5 42
09:55 1024 30.24 853 25.19 21.5 70.7 34 5.3 41.6
10:00 1024 30.24 853 25.19 21.8 71.3 34 5.6 42.1
10:05 1024 30.24 853 25.19 21.7 71 34 5.2 41.4
10:10 1024 30.24 853 25.19 21.9 71.4 35 6.1 43
10:15 1024 30.24 853 25.19 21.7 71.1 36 6 42.7
10:20 1024 30.24 853 25.19 22.5 72.5 33 5.8 42.5
10:25 1024 30.24 853 25.19 23.1 73.6 34 6.6 43.9
10:30 1024 30.24 853 25.19 23.3 73.9 32 5.7 42.3
10:35 1024 30.24 853 25.19 23.3 74 32 5.8 42.4
10:40 1024 30.24 853 25.19 23.6 74.4 31 5.8 42.4
10:45 1024 30.24 853 25.19 23.4 74.2 32 6.1 43
10:50 1024 30.24 853 25.19 24.1 75.3 31 6 42.7
10:55 1024 30.24 853 25.19 24 75.2 32 6.3 43.4
11:00 1024 30.24 853 25.19 23.6 74.4 32 6.1 43
11:05 1024 30.24 853 25.19 24.5 76.2 30 5.9 42.6
11:10 1024 30.24 853 25.19 25.2 77.4 30 6.5 43.7
11:15 1024 30.24 853 25.19 25.7 78.2 29 6.4 43.5
11:20 1024 30.24 853 25.19 25.7 78.2 28 6.3 43.3
11:25 1024 30.24 853 25.19 25.8 78.4 29 6.6 43.8
11:30 1024 30.24 853 25.19 25.7 78.2 28 6.2 43.2
11:35 1024 30.24 853 25.19 25.9 78.5 28 6.1 43
11:40 1024 30.24 853 25.19 25.8 78.5 28 6 42.9
11:45 1024 30.24 853 25.19 25.9 78.6 27 5.9 42.7
11:50 1024 30.24 853 25.19 25.5 77.9 28 5.7 42.2
11:55 1024 30.24 853 25.19 25.2 77.4 28 5.7 42.3
12:00 1024 30.24 853 25.19 25.1 77.1 27 5 41
12:05 1023 30.21 853 25.19 26.1 79 25 5 41.1
12:10 1023 30.21 853 25.19 27 80.7 25 5.4 41.7
12:15 1023 30.21 853 25.19 27 80.6 25 5.6 42.1
12:20 1023 30.21 853 25.19 27 80.6 26 6.2 43.1
12:25 1023 30.21 852 25.16 27.4 81.3 24 5.6 42.1
12:30 1023 30.21 852 25.16 28.1 82.6 24 6.1 43
12:35 1023 30.21 852 25.16 27.4 81.3 24 5.2 41.4
12:40 1023 30.21 852 25.16 27.4 81.4 22 3.9 39
12:45 1023 30.21 852 25.16 28.4 83.1 22 4.8 40.6
12:50 1023 30.21 852 25.16 29 84.2 21 5 40.9
12:55 1023 30.21 852 25.16 28.2 82.8 23 5.2 41.4
13:00 1023 30.21 852 25.16 27.7 81.8 23 4.9 40.7
13:05 1023 30.21 852 25.16 28 82.4 22 4.3 39.7
13:10 1023 30.21 852 25.16 29 84.1 20 4.1 39.3
13:15 1023 30.21 852 25.16 30 85.9 19 4.3 39.8
13:20 1023 30.21 852 25.16 30 86 19 4.1 39.5
13:25 1023 30.21 852 25.16 30.1 86.2 18 3.7 38.7
13:30 1023 30.21 852 25.16 29.9 85.8 19 3.9 39
13:35 1023 30.21 852 25.16 29.8 85.6 14 -0.3 31.4
13:40 1023 30.21 852 25.16 29.9 85.8 12 -1.9 28.6
13:45 1023 30.21 852 25.16 30.1 86.1 12 -2.3 27.9
13:50 1023 30.21 852 25.16 30.7 87.2 12 -1.4 29.5
13:55 1023 30.21 852 25.16 31.1 87.9 13 -0.6 30.9
14:00 1023 30.21 852 25.16 30.1 86.2 13 -1.2 29.9
14:05 1023 30.21 852 25.16 29.5 85.2 12 -2.3 27.9
14:10 1022 30.18 852 25.16 30.4 86.7 12 -1.9 28.5
14:15 1022 30.18 852 25.16 31.2 88.1 12 -1.3 29.7
14:20 1022 30.18 852 25.16 31.6 89 12 -0.4 31.3
14:25 1022 30.18 852 25.16 30.8 87.4 13 -0.1 31.9
14:30 1022 30.18 852 25.16 30.2 86.4 14 -0.2 31.6
14:35 1022 30.18 851 25.13 29.9 85.8 14 -0.4 31.3
14:40 1022 30.18 851 25.13 30 86 15 1.1 34
14:45 1022 30.18 851 25.13 30.8 87.4 13 -0.2 31.7
14:50 1022 30.18 851 25.13 30.8 87.4 14 0.4 32.8
14:55 1022 30.18 851 25.13 30.8 87.4 14 0.4 32.7
15:00 1022 30.18 851 25.13 31.2 88.1 14 0.4 32.8
15:05 1022 30.18 851 25.13 31.5 88.6 14 0.8 33.5
15:10 1022 30.18 851 25.13 31.4 88.5 14 0.6 33
15:15 1022 30.18 851 25.13 30.6 87.1 14 0.8 33.4
15:20 1022 30.18 851 25.13 30.9 87.6 14 0.9 33.7
15:25 1022 30.18 851 25.13 29.6 85.3 15 0.2 32.4
15:30 1022 30.18 851 25.13 30.3 86.5 15 0.7 33.3
15:35 1022 30.18 851 25.13 30.2 86.4 14 0.5 33
15:40 1022 30.18 851 25.13 31.4 88.5 13 0.3 32.5
15:45 1022 30.18 851 25.13 31.2 88.2 13 0 32
15:50 1022 30.18 851 25.13 30.8 87.5 14 0.2 32.4
15:55 1022 30.18 851 25.13 31.1 87.9 14 0.7 33.2
16:00 1022 30.18 851 25.13 30.6 87.2 14 0.1 32.1
16:05 1022 30.18 851 25.13 30.9 87.5 14 1.1 33.9
16:10 1022 30.18 851 25.13 31.5 88.7 13 0.3 32.6
16:15 1022 30.18 851 25.13 31.6 88.9 14 1 33.9
16:20 1022 30.18 851 25.13 31 87.8 14 0.8 33.5
16:25 1022 30.18 851 25.13 30.2 86.3 15 0.7 33.2
16:30 1022 30.18 851 25.13 30.5 86.9 15 0.9 33.6
16:35 1022 30.18 851 25.13 30.8 87.5 14 0.8 33.4
16:40 1022 30.18 851 25.13 30.3 86.5 15 0.9 33.6
16:45 1022 30.18 851 25.13 29.9 85.8 15 0.3 32.6
16:50 1022 30.18 851 25.13 30.7 87.2 14 0.5 32.9
16:55 1022 30.18 851 25.13 30.3 86.6 14 0.7 33.2
17:00 1022 30.18 851 25.13 30.3 86.5 15 0.7 33.3
17:05 1022 30.18 851 25.13 31.1 88 15 1.7 35.1
17:10 1022 30.18 851 25.13 31.2 88.1 14 0.8 33.4
17:15 1022 30.18 851 25.13 30.7 87.2 16 2 35.6
17:20 1022 30.18 851 25.13 29.9 85.7 15 0.8 33.5
17:25 1022 30.18 851 25.13 29.8 85.7 15 0.9 33.6
17:30 1022 30.18 851 25.13 30.4 86.8 15 0.8 33.5
17:35 1022 30.18 851 25.13 30.4 86.6 15 1.6 34.9
17:40 1022 30.18 851 25.13 29.7 85.5 15 0.6 33.1
17:45 1022 30.18 851 25.13 29.6 85.4 16 1.8 35.2
17:50 1022 30.18 851 25.13 29.8 85.6 15 0.7 33.2
17:55 1022 30.18 851 25.13 30 86.1 15 0.8 33.4
18:00 1022 30.18 851 25.13 29.6 85.3 14 -0.6 31
18:05 1022 30.18 851 25.13 29.6 85.2 15 1 33.8
18:10 1022 30.18 851 25.13 29.6 85.2 15 0.6 33
18:15 1022 30.18 851 25.13 29.8 85.6 15 1 33.7
18:20 1022 30.18 851 25.13 29.7 85.5 17 2.7 36.8
18:25 1022 30.18 851 25.13 29.8 85.7 15 1.1 34
18:30 1022 30.18 851 25.13 29.6 85.3 17 2.2 35.9
18:35 1022 30.18 851 25.13 29 84.1 19 3.1 37.5
18:40 1022 30.18 851 25.13 28.7 83.7 19 3.1 37.5
18:45 1022 30.18 851 25.13 28.7 83.7 22 5.2 41.4
18:50 1022 30.18 851 25.13 28.6 83.5 21 4.7 40.5
18:55 1022 30.18 851 25.13 28.5 83.3 21 4.4 39.8
19:00 1022 30.18 851 25.13 28.5 83.2 21 4.2 39.6
19:05 1022 30.18 851 25.13 28.4 83.1 20 3.3 37.9
19:10 1022 30.18 851 25.13 28.5 83.2 20 3.8 38.9
19:15 1022 30.18 851 25.13 28.4 83.1 20 3.3 38
19:20 1022 30.18 851 25.13 28.2 82.7 21 4.3 39.7
19:25 1022 30.18 851 25.13 28 82.4 23 5.3 41.6
19:30 1022 30.18 851 25.13 27.9 82.2 23 5.3 41.6
19:35 1022 30.18 851 25.13 27.6 81.7 23 5 41.1
19:40 1022 30.18 851 25.13 27.3 81.2 23 4.9 40.9
19:45 1022 30.18 851 25.13 27.1 80.7 24 4.9 40.7
19:50 1022 30.18 851 25.13 26.6 79.9 29 7.4 45.3
19:55 1022 30.18 851 25.13 25.9 78.7 33 8.6 47.4
20:00 1022 30.18 851 25.13 25.1 77.2 32 7.7 45.9
20:05 1022 30.18 851 25.13 24.4 75.9 33 7.3 45.1
20:10 1022 30.18 851 25.13 24 75.2 32 6.5 43.7
20:15 1022 30.18 851 25.13 23.7 74.7 32 6.3 43.4
20:20 1022 30.18 851 25.13 23.5 74.3 33 6.5 43.7
20:25 1022 30.18 851 25.13 23.2 73.7 35 7.1 44.7
20:30 1022 30.18 851 25.13 22.7 72.9 35 6.6 43.8
20:35 1022 30.18 851 25.13 22.4 72.2 35 6.4 43.5
20:40 1022 30.18 851 25.13 21.8 71.2 38 7 44.6
20:45 1022 30.18 851 25.13 21.1 70.1 40 7.1 44.8
20:50 1022 30.18 851 25.13 20.7 69.3 40 6.9 44.4
20:55 1022 30.18 851 25.13 20.7 69.2 38 6.1 43
21:00 1022 30.18 851 25.13 21 69.9 35 5.1 41.2
21:05 1022 30.18 851 25.13 21.5 70.6 33 4.6 40.2
21:10 1022 30.18 851 25.13 21.6 70.9 33 4.9 40.8
21:15 1022 30.18 852 25.16 21.4 70.5 33 4.5 40.1
21:20 1022 30.18 852 25.16 21.1 70 33 4.4 40
21:25 1022 30.18 852 25.16 21.1 69.9 33 4.4 39.9
21:30 1022 30.18 852 25.16 21.1 70 32 4.1 39.3
21:35 1023 30.21 852 25.16 21.3 70.3 33 4.5 40.1
21:40 1023 30.21 852 25.16 21.4 70.5 37 6.4 43.5
21:45 1023 30.21 852 25.16 21 69.7 32 4 39.3
21:50 1023 30.21 852 25.16 21 69.8 33 4.4 39.9
21:55 1023 30.21 852 25.16 20.9 69.5 34 4.7 40.5
22:00 1023 30.21 852 25.16 20.8 69.5 33 4 39.1
22:05 1023 30.21 852 25.16 21 69.8 31 3.5 38.2
22:10 1023 30.21 852 25.16 21.2 70.2 31 3.6 38.6
22:15 1023 30.21 852 25.16 21.1 69.9 32 3.8 38.9
22:20 1023 30.21 852 25.16 20.8 69.5 32 3.9 39
22:25 1023 30.21 852 25.16 20.6 69 33 3.8 38.9
22:30 1023 30.21 852 25.16 20.4 68.7 33 3.6 38.4
22:35 1023 30.21 852 25.16 20.5 68.8 32 3.5 38.2
22:40 1023 30.21 852 25.16 20.8 69.5 34 4.5 40.2
22:45 1023 30.21 852 25.16 20.7 69.2 38 5.9 42.6
22:50 1023 30.21 852 25.16 20.4 68.7 34 4.2 39.6
22:55 1023 30.21 852 25.16 19.9 67.8 36 4.6 40.2
23:00 1023 30.21 852 25.16 19.7 67.4 35 4.1 39.4
23:05 1023 30.21 852 25.16 19.7 67.5 40 6 42.9
23:10 1023 30.21 852 25.16 19.6 67.3 38 4.9 40.9
23:15 1023 30.21 853 25.19 19.7 67.5 34 3.6 38.5
23:20 1024 30.24 853 25.19 19.9 67.8 37 5 41
23:25 1024 30.24 853 25.19 19.7 67.4 35 3.9 39.1
23:30 1024 30.24 853 25.19 19.6 67.2 36 4.3 39.8
23:35 1024 30.24 853 25.19 19.3 66.8 38 5 40.9
23:40 1024 30.24 853 25.19 19.2 66.6 42 6.2 43.1
23:45 1024 30.24 853 25.19 18.9 66 39 4.8 40.7
23:50 1024 30.24 853 25.19 18.5 65.2 41 4.9 40.9
23:55 1024 30.24 853 25.19 18.4 65.1 40 4.8 40.6
24:00 1024 30.24 853 25.19 18.4 65.1 45 6.4 43.4